createdAt,value
2023-03-15T00:02:11.717Z,78
2023-03-15T00:17:20.527Z,78
2023-03-15T00:32:30.369Z,77.9
2023-03-15T00:47:40.564Z,77.7
2023-03-15T01:02:50.834Z,77.5
2023-03-15T01:18:01.103Z,77.3
2023-03-15T01:33:10.800Z,77
2023-03-15T01:48:19.745Z,76.9
2023-03-15T02:03:28.603Z,77.5
2023-03-15T02:18:38.096Z,77.6
2023-03-15T02:33:47.670Z,76.8
2023-03-15T02:48:57.506Z,77.3
2023-03-15T03:04:06.912Z,76.9
2023-03-15T03:19:16.050Z,76.7
2023-03-15T03:34:25.644Z,77.2
2023-03-15T03:49:35.487Z,77.5
2023-03-15T04:04:45.116Z,77.5
2023-03-15T04:19:53.942Z,77.6
2023-03-15T04:35:04.060Z,77.6
2023-03-15T04:50:13.797Z,77.6
2023-03-15T05:05:23.637Z,77.8
2023-03-15T05:20:33.411Z,77.9
2023-03-15T05:35:43.278Z,77.9
2023-03-15T05:50:53.138Z,77.9
2023-03-15T06:06:02.775Z,77.9
2023-03-15T06:21:12.091Z,77.9
2023-03-15T06:36:24.252Z,77.9
2023-03-15T06:51:33.871Z,77.9
2023-03-15T07:06:44.506Z,78.3
2023-03-15T07:21:53.876Z,77.8
2023-03-15T07:37:03.455Z,77.8
2023-03-15T07:52:13.251Z,77.7
2023-03-15T08:07:23.283Z,77.5
2023-03-15T08:22:38.818Z,77.4
2023-03-15T08:37:50.019Z,77.3
2023-03-15T08:52:59.767Z,77.2
2023-03-15T09:08:09.688Z,76.9
2023-03-15T09:23:20.380Z,76.8
2023-03-15T09:38:34.799Z,76.7
2023-03-15T09:53:45.033Z,76.5
2023-03-15T10:08:54.659Z,76.2
2023-03-15T10:24:04.864Z,75.9
2023-03-15T10:39:15.061Z,75.9
2023-03-15T10:54:25.372Z,75.1
2023-03-15T11:09:34.615Z,75.2
2023-03-15T11:24:47.327Z,74.9
2023-03-15T11:40:17.070Z,74.6
2023-03-15T11:55:27.849Z,74.1
2023-03-15T12:10:37.768Z,73.6
2023-03-15T12:25:56.117Z,73.5
2023-03-15T12:41:05.721Z,74.3
2023-03-15T12:56:14.524Z,76.2
2023-03-15T13:11:24.073Z,74.4
2023-03-15T13:26:33.604Z,72.6
2023-03-15T13:41:45.146Z,71.2
2023-03-15T13:56:56.204Z,68.8
2023-03-15T14:12:06.839Z,68.6
2023-03-15T14:27:35.046Z,67.9
2023-03-15T14:42:44.685Z,67.9
2023-03-15T14:57:54.144Z,69.1
2023-03-15T15:13:08.011Z,68.6
2023-03-15T15:28:37.889Z,69.8
2023-03-15T15:43:47.616Z,70.2
2023-03-15T15:58:57.685Z,69.8
2023-03-15T16:14:11.388Z,63
2023-03-15T16:29:18.417Z,67.9
2023-03-15T16:44:32.410Z,69.3
2023-03-15T16:59:40.515Z,72.7
2023-03-15T17:14:49.074Z,74
2023-03-15T17:29:58.229Z,74.5
2023-03-15T17:45:08.271Z,74.5
2023-03-15T18:00:17.464Z,74.7
2023-03-15T18:15:26.676Z,74.6
2023-03-15T18:30:36.747Z,74.6
2023-03-15T18:45:46.651Z,74.7
2023-03-15T19:00:56.890Z,74.8
2023-03-15T19:16:06.361Z,75
2023-03-15T19:31:16.332Z,75
2023-03-15T19:46:26.370Z,75.1
2023-03-15T20:01:35.793Z,75.2
2023-03-15T20:16:45.079Z,75.3
2023-03-15T20:31:54.762Z,75.4
2023-03-15T20:47:04.511Z,75.4
2023-03-15T21:02:22.433Z,75.2
2023-03-15T21:17:31.423Z,75.4
2023-03-15T21:33:14.634Z,75.3
2023-03-15T21:48:27.612Z,75.5
2023-03-15T22:03:37.424Z,75.6
2023-03-15T22:18:47.368Z,75.5
2023-03-15T22:33:57.131Z,75.2
2023-03-15T22:49:06.700Z,75.7
2023-03-15T23:04:19.594Z,75.6
2023-03-15T23:19:29.130Z,75.5
2023-03-15T23:34:38.788Z,75.5
2023-03-15T23:49:47.160Z,75.5
